createdAt,value
2018-06-22T00:00:56.973Z,77.70
2018-06-22T00:03:25.033Z,77.70
2018-06-22T00:05:53.129Z,78.00
2018-06-22T00:08:21.185Z,78.30
2018-06-22T00:10:49.253Z,78.10
2018-06-22T00:13:17.320Z,78.20
2018-06-22T00:15:45.400Z,78.30
2018-06-22T00:18:13.452Z,78.60
2018-06-22T00:20:41.560Z,78.90
2018-06-22T00:23:09.613Z,79.10
2018-06-22T00:25:37.676Z,78.80
2018-06-22T00:28:05.736Z,79.40
2018-06-22T00:30:33.817Z,79.90
2018-06-22T00:33:01.874Z,79.90
2018-06-22T00:35:29.944Z,80.70
2018-06-22T00:37:58.120Z,79.80
2018-06-22T00:40:26.169Z,79.90
2018-06-22T00:42:54.200Z,80.00
2018-06-22T00:45:22.281Z,80.70
2018-06-22T00:47:50.441Z,80.90
2018-06-22T00:50:18.490Z,81.00
2018-06-22T00:52:46.553Z,81.10
2018-06-22T00:55:14.614Z,81.60
2018-06-22T00:57:42.684Z,81.80
2018-06-22T01:00:10.736Z,81.80
2018-06-22T01:05:06.765Z,81.90
2018-06-22T01:07:34.857Z,81.90
2018-06-22T01:10:02.937Z,81.40
2018-06-22T01:12:31.029Z,81.50
2018-06-22T01:14:59.104Z,81.80
2018-06-22T01:17:27.200Z,82.10
2018-06-22T01:19:55.281Z,82.30
2018-06-22T01:22:23.390Z,82.60
2018-06-22T01:24:51.436Z,82.10
2018-06-22T01:27:19.516Z,82.30
2018-06-22T01:29:47.592Z,82.50
2018-06-22T01:32:15.676Z,82.90
2018-06-22T01:34:43.753Z,83.40
2018-06-22T01:37:11.845Z,84.20
2018-06-22T01:39:39.919Z,84.50
2018-06-22T01:42:08.000Z,85.00
2018-06-22T01:44:36.080Z,85.20
2018-06-22T01:47:04.168Z,85.50
2018-06-22T01:49:32.252Z,85.90
2018-06-22T01:52:00.337Z,86.30
2018-06-22T01:54:28.433Z,86.40
2018-06-22T01:56:56.608Z,86.90
2018-06-22T01:59:24.697Z,86.80
2018-06-22T02:01:52.769Z,87.10
2018-06-22T02:04:20.865Z,87.80
2018-06-22T02:06:48.945Z,88.00
2018-06-22T02:09:17.034Z,87.50
2018-06-22T02:11:45.118Z,87.80
2018-06-22T02:14:13.200Z,87.50
2018-06-22T02:16:41.281Z,87.90
2018-06-22T02:19:09.369Z,87.60
2018-06-22T02:21:37.452Z,87.30
2018-06-22T02:24:05.669Z,87.30
2018-06-22T02:26:33.748Z,87.80
2018-06-22T02:29:01.846Z,88.30
2018-06-22T02:31:29.913Z,88.50
2018-06-22T02:33:58.013Z,88.50
2018-06-22T02:36:26.097Z,88.30
2018-06-22T02:38:54.181Z,88.10
2018-06-22T02:41:22.742Z,88.50
2018-06-22T02:43:50.823Z,88.40
2018-06-22T02:46:18.912Z,88.80
2018-06-22T02:48:47.200Z,88.40
2018-06-22T02:51:15.297Z,88.80
2018-06-22T02:53:43.377Z,88.80
2018-06-22T02:56:11.460Z,88.90
2018-06-22T02:58:39.561Z,89.00
2018-06-22T03:01:07.642Z,89.20
2018-06-22T03:03:35.722Z,89.30
2018-06-22T03:06:03.805Z,89.90
2018-06-22T03:08:31.878Z,90.00
2018-06-22T03:10:59.960Z,90.00
2018-06-22T03:13:28.033Z,90.00
2018-06-22T03:15:56.077Z,90.20
2018-06-22T03:18:24.105Z,90.30
2018-06-22T03:20:52.157Z,90.70
2018-06-22T03:23:20.198Z,90.70
2018-06-22T03:25:48.235Z,91.00
2018-06-22T03:28:16.273Z,90.90
2018-06-22T03:30:44.321Z,91.10
2018-06-22T03:33:12.362Z,91.00
2018-06-22T03:35:40.409Z,91.00
2018-06-22T03:38:08.472Z,91.10
2018-06-22T03:40:36.545Z,91.20
2018-06-22T03:43:04.709Z,91.20
2018-06-22T03:45:32.776Z,91.20
2018-06-22T03:48:00.849Z,91.40
2018-06-22T03:50:28.905Z,91.70
2018-06-22T03:52:57.082Z,91.50
2018-06-22T03:55:25.192Z,91.80
2018-06-22T03:57:53.385Z,91.80
2018-06-22T04:00:21.661Z,92.10
2018-06-22T04:02:49.737Z,92.20
2018-06-22T04:05:17.804Z,92.40
2018-06-22T04:07:45.860Z,92.50
2018-06-22T04:10:13.909Z,92.70
2018-06-22T04:12:41.985Z,93.00
2018-06-22T04:15:10.139Z,93.40
2018-06-22T04:17:54.649Z,93.90
2018-06-22T04:20:23.856Z,94.10
2018-06-22T04:22:52.414Z,94.40
2018-06-22T04:25:21.672Z,94.60
2018-06-22T04:27:50.472Z,94.80
2018-06-22T04:30:18.754Z,95.10
2018-06-22T04:32:47.557Z,95.40
2018-06-22T04:35:15.841Z,95.40
2018-06-22T04:37:43.934Z,95.30
2018-06-22T04:40:11.991Z,96.10
2018-06-22T04:42:40.062Z,95.90
2018-06-22T04:45:08.120Z,95.90
2018-06-22T04:47:36.240Z,96.00
2018-06-22T04:50:04.269Z,96.10
2018-06-22T04:52:32.441Z,96.30
2018-06-22T04:55:00.520Z,96.60
2018-06-22T04:57:28.588Z,96.10
2018-06-22T04:59:56.644Z,96.30
2018-06-22T05:02:24.709Z,96.30
2018-06-22T05:04:52.790Z,96.30
2018-06-22T05:07:20.849Z,96.10
2018-06-22T05:09:48.908Z,96.00
2018-06-22T05:12:16.960Z,96.00
2018-06-22T05:14:45.023Z,95.30
2018-06-22T05:17:13.073Z,94.90
2018-06-22T05:19:41.144Z,94.70
2018-06-22T05:22:09.208Z,94.80
2018-06-22T05:24:37.272Z,95.00
2018-06-22T05:27:05.329Z,94.40
2018-06-22T05:29:33.612Z,95.60
2018-06-22T05:32:01.673Z,94.40
2018-06-22T05:34:30.797Z,94.50
2018-06-22T05:36:58.842Z,94.60
2018-06-22T05:39:26.887Z,93.40
2018-06-22T05:41:54.941Z,93.90
2018-06-22T05:44:22.981Z,94.40
2018-06-22T05:46:51.033Z,94.10
2018-06-22T05:49:19.068Z,94.80
2018-06-22T05:51:47.109Z,94.50
2018-06-22T05:54:15.154Z,93.70
2018-06-22T05:56:43.226Z,93.30
2018-06-22T05:59:11.245Z,92.90
2018-06-22T06:01:39.305Z,92.70
2018-06-22T06:04:07.340Z,92.70
2018-06-22T06:06:35.409Z,92.00
2018-06-22T06:09:04.025Z,92.00
2018-06-22T06:11:32.069Z,92.00
2018-06-22T06:14:00.101Z,91.50
2018-06-22T06:16:28.146Z,91.10
2018-06-22T06:18:56.185Z,90.90
2018-06-22T06:21:24.220Z,90.70
2018-06-22T06:23:52.260Z,90.90
2018-06-22T06:26:20.305Z,90.90
2018-06-22T06:28:48.341Z,90.80
2018-06-22T06:31:16.388Z,90.50
2018-06-22T06:33:44.432Z,89.40
2018-06-22T06:36:12.491Z,88.70
2018-06-22T06:38:40.553Z,82.90
2018-06-22T06:41:08.774Z,80.40
2018-06-22T06:43:36.846Z,77.00
2018-06-22T06:46:05.045Z,72.70
2018-06-22T06:48:33.108Z,69.70
2018-06-22T06:51:01.172Z,66.10
2018-06-22T06:53:30.045Z,65.40
2018-06-22T06:55:58.104Z,66.00
2018-06-22T06:58:26.172Z,67.50
2018-06-22T07:00:54.237Z,68.10
2018-06-22T07:05:50.225Z,68.20
2018-06-22T07:08:18.288Z,69.20
2018-06-22T07:10:46.416Z,70.60
2018-06-22T07:13:14.490Z,70.70
2018-06-22T07:15:42.684Z,71.50
2018-06-22T07:18:10.877Z,71.70
2018-06-22T07:20:39.056Z,70.20
2018-06-22T07:23:07.765Z,70.10
2018-06-22T07:25:35.829Z,70.10
2018-06-22T07:28:03.888Z,72.40
2018-06-22T07:30:31.976Z,73.40
2018-06-22T07:33:00.004Z,74.00
2018-06-22T07:35:28.075Z,73.10
2018-06-22T07:37:56.220Z,74.20
2018-06-22T07:40:24.293Z,72.30
2018-06-22T07:42:52.344Z,72.50
2018-06-22T07:45:20.418Z,72.50
2018-06-22T07:47:48.485Z,73.10
2018-06-22T07:50:16.565Z,73.50
2018-06-22T07:52:44.616Z,74.00
2018-06-22T07:55:12.677Z,74.10
2018-06-22T07:57:40.745Z,74.50
2018-06-22T08:00:08.806Z,74.60
2018-06-22T08:02:36.861Z,74.50
2018-06-22T08:05:05.208Z,75.10
2018-06-22T08:07:33.265Z,74.30
2018-06-22T08:10:02.200Z,75.70
2018-06-22T08:12:30.276Z,76.30
2018-06-22T08:14:58.356Z,76.90
2018-06-22T08:17:26.417Z,76.80
2018-06-22T08:19:54.493Z,77.30
2018-06-22T08:22:22.553Z,76.80
2018-06-22T08:24:50.615Z,77.70
2018-06-22T08:27:18.722Z,77.50
2018-06-22T08:29:46.761Z,77.20
2018-06-22T08:32:14.821Z,77.60
2018-06-22T08:34:42.888Z,78.40
2018-06-22T08:37:10.976Z,78.10
2018-06-22T08:39:39.025Z,79.00
2018-06-22T08:42:07.130Z,79.90
2018-06-22T08:44:35.192Z,79.30
2018-06-22T08:47:03.248Z,79.20
2018-06-22T08:49:31.444Z,79.70
2018-06-22T08:51:59.629Z,80.20
2018-06-22T08:54:27.709Z,79.20
2018-06-22T08:56:55.778Z,79.40
2018-06-22T08:59:23.857Z,79.70
2018-06-22T09:01:51.918Z,80.10
2018-06-22T09:04:19.981Z,80.50
2018-06-22T09:06:48.045Z,80.90
2018-06-22T09:09:16.105Z,80.40
2018-06-22T09:11:44.233Z,80.40
2018-06-22T09:14:12.284Z,80.60
2018-06-22T09:16:40.361Z,80.00
2018-06-22T09:19:08.441Z,79.80
2018-06-22T09:21:36.509Z,80.10
2018-06-22T09:24:04.577Z,80.50
2018-06-22T09:26:32.641Z,80.70
2018-06-22T09:29:00.701Z,80.00
2018-06-22T09:31:28.769Z,79.70
2018-06-22T09:33:56.828Z,80.80
2018-06-22T09:36:24.946Z,79.40
2018-06-22T09:38:53.036Z,80.40
2018-06-22T09:41:21.096Z,80.20
2018-06-22T09:43:49.200Z,78.80
2018-06-22T09:46:17.301Z,79.10
2018-06-22T09:48:45.580Z,79.70
2018-06-22T09:51:13.635Z,79.60
2018-06-22T09:53:41.689Z,79.30
2018-06-22T09:56:09.749Z,79.50
2018-06-22T10:01:12.356Z,78.90
2018-06-22T10:03:40.415Z,79.50
2018-06-22T10:06:08.510Z,79.60
2018-06-22T10:08:36.590Z,80.00
2018-06-22T10:11:04.644Z,77.90
2018-06-22T10:13:32.747Z,80.20
2018-06-22T10:16:00.777Z,78.20
2018-06-22T10:18:28.833Z,77.30
2018-06-22T10:20:56.972Z,77.30
2018-06-22T10:23:25.029Z,76.70
2018-06-22T10:25:53.084Z,77.00
2018-06-22T10:28:21.136Z,75.70
2018-06-22T10:30:49.201Z,76.70
2018-06-22T10:33:17.332Z,77.00
2018-06-22T10:35:45.380Z,76.50
2018-06-22T10:38:13.433Z,77.60
2018-06-22T10:40:41.510Z,76.10
2018-06-22T10:43:09.581Z,77.90
2018-06-22T10:45:37.640Z,76.60
2018-06-22T10:48:05.721Z,77.20
2018-06-22T10:50:33.789Z,76.60
2018-06-22T10:53:01.851Z,74.40
2018-06-22T10:55:29.921Z,74.60
2018-06-22T10:57:57.980Z,73.80
2018-06-22T11:00:26.057Z,74.30
2018-06-22T11:02:54.124Z,72.90
2018-06-22T11:05:22.200Z,73.80
2018-06-22T11:07:50.273Z,72.30
2018-06-22T11:10:18.340Z,72.10
2018-06-22T11:12:46.496Z,72.60
2018-06-22T11:15:14.558Z,73.20
2018-06-22T11:17:42.617Z,75.10
2018-06-22T11:20:10.677Z,74.50
2018-06-22T11:22:38.745Z,76.30
2018-06-22T11:25:06.917Z,74.50
2018-06-22T11:27:34.990Z,73.10
2018-06-22T11:30:03.065Z,72.90
2018-06-22T11:32:31.138Z,73.90
2018-06-22T11:34:59.197Z,74.60
2018-06-22T11:37:27.270Z,74.10
2018-06-22T11:39:55.327Z,71.30
2018-06-22T11:42:23.398Z,69.10
2018-06-22T11:44:51.455Z,69.20
2018-06-22T11:47:19.529Z,69.80
2018-06-22T11:49:47.580Z,68.70
2018-06-22T11:52:15.644Z,70.10
2018-06-22T11:54:43.841Z,67.80
2018-06-22T11:57:11.905Z,65.20
2018-06-22T11:59:40.110Z,68.00
2018-06-22T12:02:08.181Z,65.50
2018-06-22T12:04:36.273Z,68.60
2018-06-22T12:07:04.331Z,65.80
2018-06-22T12:09:32.385Z,63.60
2018-06-22T12:12:00.473Z,63.60
2018-06-22T12:14:28.533Z,64.20
2018-06-22T12:16:56.585Z,65.50
2018-06-22T12:19:24.825Z,65.10
2018-06-22T12:21:52.708Z,66.30
2018-06-22T12:24:20.776Z,66.80
2018-06-22T12:26:48.852Z,65.50
2018-06-22T12:29:16.912Z,67.70
2018-06-22T12:31:44.969Z,66.80
2018-06-22T12:34:13.033Z,67.70
2018-06-22T12:36:41.126Z,67.50
2018-06-22T12:41:38.576Z,65.60
2018-06-22T12:44:06.664Z,64.40
2018-06-22T12:46:35.212Z,66.30
2018-06-22T12:49:03.285Z,66.80
2018-06-22T12:51:31.356Z,67.10
2018-06-22T12:53:59.429Z,65.60
2018-06-22T12:56:27.520Z,63.50
2018-06-22T12:58:55.609Z,65.90
2018-06-22T13:01:23.896Z,63.00
2018-06-22T13:03:52.924Z,63.90
2018-06-22T13:06:20.969Z,63.00
2018-06-22T13:08:49.024Z,64.20
2018-06-22T13:11:17.100Z,64.00
2018-06-22T13:13:45.152Z,63.30
2018-06-22T13:16:13.400Z,63.20
2018-06-22T13:18:41.689Z,62.60
2018-06-22T13:21:09.744Z,62.00
2018-06-22T13:23:44.334Z,61.00
2018-06-22T13:26:12.402Z,61.10
2018-06-22T13:28:40.444Z,61.80
2018-06-22T13:31:08.512Z,62.30
2018-06-22T13:33:36.575Z,62.50
2018-06-22T13:36:04.631Z,63.80
2018-06-22T13:38:39.084Z,62.70
2018-06-22T13:41:07.149Z,63.30
2018-06-22T13:43:35.266Z,61.70
2018-06-22T13:46:03.265Z,63.00
2018-06-22T13:48:31.317Z,63.40
2018-06-22T13:50:59.901Z,63.10
2018-06-22T13:53:27.962Z,62.20
2018-06-22T13:55:56.031Z,63.50
2018-06-22T13:58:24.104Z,62.20
2018-06-22T14:00:52.175Z,63.50
2018-06-22T14:03:20.228Z,62.60
2018-06-22T14:05:53.792Z,61.00
2018-06-22T14:08:21.869Z,61.50
2018-06-22T14:10:49.911Z,63.00
2018-06-22T14:13:17.996Z,62.50
2018-06-22T14:15:46.066Z,61.70
2018-06-22T14:18:14.181Z,61.50
2018-06-22T14:20:42.241Z,60.90
2018-06-22T14:23:10.306Z,61.30
2018-06-22T14:25:38.360Z,63.70
2018-06-22T14:28:06.429Z,60.70
2018-06-22T14:30:34.485Z,58.90
2018-06-22T14:33:02.568Z,59.70
2018-06-22T14:35:30.625Z,60.20
2018-06-22T14:37:58.697Z,60.00
2018-06-22T14:40:26.754Z,60.30
2018-06-22T14:42:54.824Z,59.60
2018-06-22T14:45:22.902Z,59.20
2018-06-22T14:47:50.997Z,57.90
2018-06-22T14:50:19.053Z,58.40
2018-06-22T14:52:47.852Z,59.10
2018-06-22T14:55:21.384Z,60.10
2018-06-22T14:57:54.889Z,59.10
2018-06-22T15:00:28.344Z,59.20
2018-06-22T15:03:01.716Z,59.10
2018-06-22T15:05:35.320Z,60.60
2018-06-22T15:08:05.043Z,59.70
2018-06-22T15:10:33.102Z,59.40
2018-06-22T15:13:01.169Z,59.00
2018-06-22T15:15:29.228Z,59.50
2018-06-22T15:17:57.284Z,60.60
2018-06-22T15:20:25.354Z,61.40
2018-06-22T15:22:53.410Z,61.10
2018-06-22T15:25:21.492Z,60.50
2018-06-22T15:27:49.564Z,59.90
2018-06-22T15:30:17.673Z,59.60
2018-06-22T15:32:45.732Z,59.80
2018-06-22T15:35:19.019Z,60.10
2018-06-22T15:37:52.585Z,61.10
2018-06-22T15:40:26.026Z,60.60
2018-06-22T15:44:02.404Z,61.40
2018-06-22T15:46:35.985Z,61.50
2018-06-22T15:49:09.424Z,62.40
2018-06-22T15:51:42.940Z,62.40
2018-06-22T15:54:16.435Z,61.50
2018-06-22T15:56:44.472Z,61.10
2018-06-22T15:59:12.512Z,61.40
2018-06-22T16:01:40.554Z,61.70
2018-06-22T16:04:11.043Z,59.80
2018-06-22T16:06:39.176Z,61.80
2018-06-22T16:09:08.472Z,59.70
2018-06-22T16:11:36.804Z,60.70
2018-06-22T16:14:11.325Z,61.90
2018-06-22T16:16:44.740Z,61.10
2018-06-22T16:21:51.728Z,62.10
2018-06-22T16:24:25.316Z,60.90
2018-06-22T16:26:58.738Z,61.90
2018-06-22T16:29:26.772Z,61.10
2018-06-22T16:31:55.249Z,60.50
2018-06-22T16:34:23.313Z,62.00
2018-06-22T16:36:51.365Z,62.90
2018-06-22T16:39:19.547Z,62.90
2018-06-22T16:41:47.630Z,63.20
2018-06-22T16:44:15.644Z,63.80
2018-06-22T16:46:43.695Z,63.80
2018-06-22T16:49:11.856Z,64.30
2018-06-22T16:51:39.959Z,64.10
2018-06-22T16:54:07.937Z,64.60
2018-06-22T16:56:36.181Z,65.30
2018-06-22T16:59:04.852Z,66.10
2018-06-22T17:01:33.080Z,65.30
2018-06-22T17:04:01.097Z,65.80
2018-06-22T17:06:34.686Z,66.00
2018-06-22T17:09:08.798Z,65.70
2018-06-22T17:11:42.431Z,65.10
2018-06-22T17:14:16.013Z,64.20
2018-06-22T17:16:49.525Z,64.40
2018-06-22T17:19:22.225Z,64.20
2018-06-22T17:21:50.461Z,63.30
2018-06-22T17:24:18.563Z,63.50
2018-06-22T17:26:47.313Z,63.70
2018-06-22T17:29:15.370Z,63.70
2018-06-22T17:31:43.420Z,63.50
2018-06-22T17:34:11.470Z,65.50
2018-06-22T17:36:39.516Z,65.30
2018-06-22T17:39:09.447Z,63.90
2018-06-22T17:41:38.791Z,64.70
2018-06-22T17:44:07.257Z,65.20
2018-06-22T17:46:35.440Z,64.90
2018-06-22T17:49:03.532Z,64.80
2018-06-22T17:51:31.596Z,65.90
2018-06-22T17:53:59.628Z,64.20
2018-06-22T17:56:30.583Z,65.30
2018-06-22T17:59:04.134Z,67.90
2018-06-22T18:01:37.725Z,67.20
2018-06-22T18:04:11.217Z,69.50
2018-06-22T18:06:45.289Z,66.90
2018-06-22T18:09:18.797Z,66.60
2018-06-22T18:12:50.076Z,69.60
2018-06-22T18:15:18.792Z,69.40
2018-06-22T18:17:46.968Z,69.70
2018-06-22T18:20:15.442Z,69.20
2018-06-22T18:22:43.683Z,69.30
2018-06-22T18:25:12.261Z,70.80
2018-06-22T18:27:40.323Z,71.50
2018-06-22T18:30:13.857Z,71.20
2018-06-22T18:32:41.937Z,71.00
2018-06-22T18:35:11.362Z,69.60
2018-06-22T18:37:39.470Z,69.60
2018-06-22T18:40:08.280Z,71.40
2018-06-22T18:42:36.909Z,72.00
2018-06-22T18:45:06.301Z,70.40
2018-06-22T18:47:34.363Z,70.20
2018-06-22T18:50:02.500Z,69.60
2018-06-22T18:52:36.195Z,69.60
2018-06-22T18:55:09.705Z,69.80
2018-06-22T18:57:43.326Z,69.80
2018-06-22T19:00:17.003Z,69.80
2018-06-22T19:02:50.490Z,70.20
2018-06-22T19:05:18.600Z,71.10
2018-06-22T19:07:46.761Z,70.70
2018-06-22T19:10:15.014Z,70.80
2018-06-22T19:12:43.145Z,70.40
2018-06-22T19:15:11.275Z,70.60
2018-06-22T19:20:08.869Z,70.80
2018-06-22T19:22:36.993Z,71.10
2018-06-22T19:25:05.085Z,71.40
2018-06-22T19:27:33.186Z,71.40
2018-06-22T19:30:01.621Z,71.90
2018-06-22T19:32:29.738Z,72.10
2018-06-22T19:35:03.210Z,72.30
2018-06-22T19:37:31.786Z,73.20
2018-06-22T19:40:00.954Z,73.40
2018-06-22T19:42:29.382Z,74.10
2018-06-22T19:45:02.778Z,74.20
2018-06-22T19:47:36.253Z,74.90
2018-06-22T19:50:09.741Z,75.30
2018-06-22T19:52:43.219Z,75.40
2018-06-22T19:55:11.282Z,75.70
2018-06-22T19:57:39.333Z,76.20
2018-06-22T20:00:07.384Z,76.80
2018-06-22T20:02:35.456Z,77.20
2018-06-22T20:05:03.510Z,77.50
2018-06-22T20:07:31.557Z,77.50
2018-06-22T20:09:59.601Z,78.40
2018-06-22T20:12:27.648Z,78.30
2018-06-22T20:14:55.704Z,78.70
2018-06-22T20:17:23.776Z,79.00
2018-06-22T20:19:51.830Z,79.90
2018-06-22T20:22:19.876Z,80.30
2018-06-22T20:24:53.332Z,80.70
2018-06-22T20:27:21.386Z,81.10
2018-06-22T20:29:49.428Z,81.70
2018-06-22T20:32:17.461Z,82.00
2018-06-22T20:34:50.885Z,82.00
2018-06-22T20:37:24.348Z,81.80
2018-06-22T20:39:57.709Z,82.10
2018-06-22T20:42:31.217Z,82.20
2018-06-22T20:45:04.628Z,82.40
2018-06-22T20:47:38.025Z,82.60
2018-06-22T20:50:11.565Z,83.00
2018-06-22T20:52:39.597Z,82.90
2018-06-22T20:55:07.653Z,83.20
2018-06-22T20:57:35.705Z,83.80
2018-06-22T21:00:03.757Z,83.50
2018-06-22T21:02:31.804Z,83.60
2018-06-22T21:04:59.856Z,83.90
2018-06-22T21:07:27.900Z,84.30
2018-06-22T21:09:55.948Z,84.20
2018-06-22T21:12:26.255Z,84.30
2018-06-22T21:14:52.021Z,84.30
2018-06-22T21:17:20.188Z,84.50
2018-06-22T21:19:48.690Z,85.00
2018-06-22T21:22:16.730Z,84.80
2018-06-22T21:24:44.777Z,85.30
2018-06-22T21:27:18.383Z,84.90
2018-06-22T21:29:51.702Z,85.30
2018-06-22T21:32:25.101Z,85.70
2018-06-22T21:34:58.548Z,85.90
2018-06-22T21:37:32.027Z,85.70
2018-06-22T21:40:00.157Z,86.20
2018-06-22T21:42:28.140Z,86.70
2018-06-22T21:47:24.112Z,86.70
2018-06-22T21:49:52.168Z,87.00
2018-06-22T21:52:20.247Z,87.10
2018-06-22T21:54:48.296Z,86.60
2018-06-22T21:57:16.356Z,86.70
2018-06-22T21:59:44.464Z,87.50
2018-06-22T22:02:12.521Z,87.30
2018-06-22T22:04:40.607Z,87.50
2018-06-22T22:07:08.659Z,88.00
2018-06-22T22:09:42.220Z,88.50
2018-06-22T22:12:10.658Z,88.30
2018-06-22T22:14:39.209Z,88.20
2018-06-22T22:17:07.514Z,88.70
2018-06-22T22:19:35.688Z,88.20
2018-06-22T22:22:03.753Z,88.60
2018-06-22T22:24:31.816Z,88.60
2018-06-22T22:26:59.876Z,89.00
2018-06-22T22:29:27.953Z,89.10
2018-06-22T22:31:56.025Z,90.10
2018-06-22T22:34:24.100Z,90.70
2018-06-22T22:36:52.144Z,91.20
2018-06-22T22:39:20.220Z,92.10
2018-06-22T22:41:48.273Z,92.30
2018-06-22T22:44:16.317Z,92.30
2018-06-22T22:46:44.403Z,92.30
2018-06-22T22:49:12.406Z,92.80
2018-06-22T22:51:40.445Z,92.50
2018-06-22T22:54:08.492Z,92.90
2018-06-22T22:56:36.536Z,93.00
2018-06-22T22:59:04.605Z,93.20
2018-06-22T23:01:32.655Z,93.20
2018-06-22T23:04:00.703Z,93.40
2018-06-22T23:06:28.736Z,93.40
2018-06-22T23:08:56.823Z,94.00
2018-06-22T23:13:52.701Z,94.00
2018-06-22T23:16:20.744Z,94.00
2018-06-22T23:18:48.801Z,94.00
2018-06-22T23:21:16.838Z,94.30
2018-06-22T23:23:44.876Z,94.50
2018-06-22T23:26:12.918Z,94.80
2018-06-22T23:28:40.980Z,94.60
2018-06-22T23:31:09.030Z,94.40
2018-06-22T23:33:37.081Z,94.60
2018-06-22T23:36:05.496Z,94.70
2018-06-22T23:38:34.102Z,94.60
2018-06-22T23:41:02.145Z,94.90
2018-06-22T23:43:31.545Z,95.10
2018-06-22T23:45:59.581Z,95.50
2018-06-22T23:48:27.630Z,95.60
2018-06-22T23:50:55.688Z,95.90
2018-06-22T23:53:23.717Z,96.10
2018-06-22T23:55:51.756Z,96.30
2018-06-22T23:58:19.809Z,96.70
